createdAt,value
2017-12-10T15:09:29.468Z,98262.61
2017-12-10T15:11:57.776Z,98257.52
2017-12-10T15:14:25.673Z,98275.25
2017-12-10T15:16:53.656Z,98277.56
2017-12-10T15:19:21.562Z,98253.09
2017-12-10T15:21:49.495Z,98237.25
2017-12-10T15:24:17.386Z,98235.88
2017-12-10T15:26:45.703Z,98199.81
2017-12-10T15:29:13.632Z,98180.52
2017-12-10T15:31:41.975Z,98184.39
2017-12-10T15:34:09.956Z,98182.25
2017-12-10T15:36:37.851Z,98169.42
2017-12-10T15:39:05.753Z,98166.91
2017-12-10T15:41:33.664Z,98142.44
2017-12-10T15:44:01.573Z,98123.18
2017-12-10T15:46:29.492Z,98116.79
2017-12-10T15:48:57.442Z,98115.08
2017-12-10T15:51:25.379Z,98110.34
2017-12-10T15:53:53.327Z,98095.34
2017-12-10T15:56:21.368Z,98106.91
2017-12-10T15:58:49.266Z,98109.52
2017-12-10T16:01:17.566Z,98111.27
2017-12-10T16:03:45.507Z,98111.27
2017-12-10T16:06:13.808Z,98113.00
2017-12-10T16:08:41.704Z,98139.51
2017-12-10T16:11:09.792Z,98139.95
2017-12-10T16:13:37.692Z,98145.05
2017-12-10T16:16:05.594Z,98150.66
2017-12-10T16:18:33.500Z,98146.30
2017-12-10T16:21:01.428Z,98155.78
2017-12-10T16:23:29.449Z,98154.93
2017-12-10T16:25:57.372Z,98148.91
2017-12-10T16:28:25.286Z,98149.75
2017-12-10T16:30:53.653Z,98141.56
2017-12-10T16:33:21.736Z,98126.63
2017-12-10T16:35:50.107Z,98114.62
2017-12-10T16:38:18.001Z,98103.96
2017-12-10T16:40:46.032Z,98101.04
2017-12-10T16:43:13.960Z,98083.42
2017-12-10T16:45:41.971Z,98084.69
2017-12-10T16:48:09.887Z,98085.08
2017-12-10T16:50:37.820Z,98078.57
2017-12-10T16:53:05.717Z,98069.95
2017-12-10T16:55:34.012Z,98089.30
2017-12-10T16:58:01.927Z,98064.17
2017-12-10T17:00:29.859Z,98059.23
2017-12-10T17:02:57.880Z,98054.06
2017-12-10T17:05:25.804Z,98043.27
2017-12-10T17:07:53.703Z,98027.41
2017-12-10T17:10:21.667Z,98031.21
2017-12-10T17:12:49.557Z,98026.43
2017-12-10T17:15:17.968Z,98027.94
2017-12-10T17:17:45.872Z,98011.23
2017-12-10T17:20:13.845Z,97998.47
2017-12-10T17:22:41.772Z,97991.94
2017-12-10T17:25:09.887Z,97982.94
2017-12-10T17:27:37.783Z,97972.67
2017-12-10T17:30:06.145Z,97977.31
2017-12-10T17:32:34.093Z,97954.31
2017-12-10T17:35:02.036Z,97952.55
2017-12-10T17:37:29.969Z,97954.59
2017-12-10T17:39:57.871Z,97931.98
2017-12-10T17:42:25.776Z,97924.34
2017-12-10T17:44:53.688Z,97918.86
2017-12-10T17:47:21.881Z,97906.80
2017-12-10T17:49:49.883Z,97895.36
2017-12-10T17:52:17.802Z,97890.31
2017-12-10T17:54:45.699Z,97886.07
2017-12-10T17:57:13.623Z,97875.30
2017-12-10T17:59:41.963Z,97871.50
2017-12-10T18:02:09.875Z,97865.52
2017-12-10T18:04:38.175Z,97865.48
2017-12-10T18:07:06.185Z,97851.00
2017-12-10T18:09:34.157Z,97852.72
2017-12-10T18:12:02.067Z,97855.63
2017-12-10T18:14:30.036Z,97846.22
2017-12-10T18:16:57.991Z,97839.38
2017-12-10T18:19:25.884Z,97839.42
2017-12-10T18:21:53.808Z,97834.31
2017-12-10T18:24:21.721Z,97830.97
2017-12-10T18:26:49.635Z,97829.20
2017-12-10T18:29:17.562Z,97827.15
2017-12-10T18:31:45.487Z,97823.75
2017-12-10T18:34:13.799Z,97822.49
2017-12-10T18:36:41.738Z,97826.75
2017-12-10T18:39:09.644Z,97816.55
2017-12-10T18:41:37.664Z,97805.46
2017-12-10T18:44:05.573Z,97795.17
2017-12-10T18:46:33.568Z,97797.32
2017-12-10T18:49:01.477Z,97798.72
2017-12-10T18:51:29.795Z,97807.23
2017-12-10T18:53:57.687Z,97799.59
2017-12-10T18:56:25.605Z,97802.59
2017-12-10T18:58:53.907Z,97794.89
2017-12-10T19:01:21.874Z,97792.70
2017-12-10T19:03:49.796Z,97790.18
2017-12-10T19:06:17.746Z,97784.66
2017-12-10T19:08:45.675Z,97765.47
2017-12-10T19:11:13.631Z,97759.92
2017-12-10T19:13:41.539Z,97760.36
2017-12-10T19:16:09.475Z,97766.36
2017-12-10T19:18:37.549Z,97759.05
2017-12-10T19:21:05.831Z,97749.67
2017-12-10T19:23:33.782Z,97747.15
2017-12-10T19:26:01.866Z,97738.61
2017-12-10T19:28:29.771Z,97731.83
2017-12-10T19:30:57.695Z,97735.66
2017-12-10T19:33:25.627Z,97733.56
2017-12-10T19:35:53.690Z,97727.11
2017-12-10T19:38:21.655Z,97724.16
2017-12-10T19:40:49.612Z,97719.92
2017-12-10T19:43:17.550Z,97724.23
2017-12-10T19:45:45.459Z,97711.36
2017-12-10T19:48:13.374Z,97719.49
2017-12-10T19:50:41.279Z,97728.01
2017-12-10T19:53:09.219Z,97716.92
2017-12-10T19:55:37.127Z,97715.64
2017-12-10T19:58:05.057Z,97717.38
2017-12-10T20:00:33.231Z,97707.10
2017-12-10T20:03:01.224Z,97714.37
2017-12-10T20:05:29.263Z,97716.47
2017-12-10T20:07:57.163Z,97709.69
2017-12-10T20:10:25.084Z,97707.16
2017-12-10T20:12:52.979Z,97703.71
2017-12-10T20:15:20.956Z,97708.02
2017-12-10T20:17:48.856Z,97714.84
2017-12-10T20:20:16.768Z,97714.01
2017-12-10T20:22:44.669Z,97716.57
2017-12-10T20:25:12.585Z,97696.94
2017-12-10T20:27:41.037Z,97691.73
2017-12-10T20:30:08.948Z,97687.05
2017-12-10T20:32:36.857Z,97696.86
2017-12-10T20:35:04.779Z,97695.16
2017-12-10T20:37:32.697Z,97684.95
2017-12-10T20:40:00.687Z,97684.13
2017-12-10T20:42:28.605Z,97681.16
2017-12-10T20:44:56.654Z,97681.53
2017-12-10T20:47:24.571Z,97680.23
2017-12-10T20:49:52.922Z,97684.91
2017-12-10T20:52:20.827Z,97668.74
2017-12-10T20:54:48.812Z,97673.38
2017-12-10T20:57:16.718Z,97664.47
2017-12-10T20:59:44.740Z,97667.89
2017-12-10T21:02:12.647Z,97665.73
2017-12-10T21:04:40.563Z,97662.77
2017-12-10T21:07:08.544Z,97642.27
2017-12-10T21:09:36.443Z,97635.02
2017-12-10T21:12:04.775Z,97632.47
2017-12-10T21:14:32.663Z,97641.46
2017-12-10T21:17:00.572Z,97635.52
2017-12-10T21:19:28.494Z,97632.55
2017-12-10T21:21:56.425Z,97644.52
2017-12-10T21:24:24.332Z,97629.98
2017-12-10T21:26:52.244Z,97630.84
2017-12-10T21:29:20.151Z,97636.41
2017-12-10T21:31:48.070Z,97626.14
2017-12-10T21:34:15.995Z,97622.77
2017-12-10T21:36:43.936Z,97623.64
2017-12-10T21:39:11.928Z,97621.95
2017-12-10T21:41:39.947Z,97614.28
2017-12-10T21:44:07.902Z,97614.31
2017-12-10T21:46:36.268Z,97618.61
2017-12-10T21:49:04.165Z,97614.77
2017-12-10T21:51:32.115Z,97613.51
2017-12-10T21:54:00.466Z,97596.00
2017-12-10T21:56:28.427Z,97602.84
2017-12-10T21:58:56.359Z,97583.18
2017-12-10T22:01:24.265Z,97592.16
2017-12-10T22:03:52.168Z,97583.23
2017-12-10T22:06:20.472Z,97582.77
2017-12-10T22:08:48.364Z,97561.40
2017-12-10T22:11:16.335Z,97556.28
2017-12-10T22:13:44.238Z,97565.27
2017-12-10T22:16:12.142Z,97561.84
2017-12-10T22:18:40.044Z,97562.28
2017-12-10T22:21:08.008Z,97553.75
2017-12-10T22:23:36.021Z,97548.17
2017-12-10T22:26:04.439Z,97540.06
2017-12-10T22:28:32.339Z,97546.48
2017-12-10T22:31:00.264Z,97542.64
2017-12-10T22:33:28.176Z,97539.20
2017-12-10T22:35:56.149Z,97534.07
2017-12-10T22:38:24.065Z,97535.80
2017-12-10T22:40:51.983Z,97534.94
2017-12-10T22:43:19.884Z,97538.34
2017-12-10T22:45:48.179Z,97533.23
2017-12-10T22:48:16.071Z,97528.51
2017-12-10T22:50:43.987Z,97532.78
2017-12-10T22:53:12.278Z,97526.80
2017-12-10T22:55:40.183Z,97527.66
2017-12-10T22:58:08.159Z,97521.66
2017-12-10T23:00:36.162Z,97527.65
2017-12-10T23:03:04.059Z,97516.11
2017-12-10T23:05:31.982Z,97510.97
2017-12-10T23:07:59.973Z,97504.56
2017-12-10T23:10:28.295Z,97498.99
2017-12-10T23:12:56.323Z,97501.56
2017-12-10T23:15:24.644Z,97498.16
2017-12-10T23:17:52.755Z,97497.70
2017-12-10T23:20:26.515Z,97484.86
2017-12-10T23:22:54.424Z,97498.55
2017-12-10T23:25:22.331Z,97489.57
2017-12-10T23:27:50.268Z,97492.14
2017-12-10T23:30:18.187Z,97493.85
2017-12-10T23:32:46.070Z,97489.99
2017-12-10T23:35:14.073Z,97478.02
2017-12-10T23:37:42.120Z,97483.58
2017-12-10T23:40:10.122Z,97468.19
2017-12-10T23:42:38.478Z,97463.91
2017-12-10T23:45:06.411Z,97451.06
2017-12-10T23:47:34.313Z,97459.62
2017-12-10T23:50:02.211Z,97455.34
2017-12-10T23:52:30.512Z,97453.20
2017-12-10T23:54:58.424Z,97447.22
2017-12-10T23:57:26.394Z,97455.34
2017-12-10T23:59:54.313Z,97446.36
